sensor_id;sensor_type;location;lat;lon;timestamp;P1;durP1;ratioP1;P2;durP2;ratioP2
15693;SDS011;7947;48.834;9.132;2022-11-20T00:02:36;10.50;;;4.23;;
15693;SDS011;7947;48.834;9.132;2022-11-20T00:05:40;9.83;;;4.90;;
15693;SDS011;7947;48.834;9.132;2022-11-20T00:08:43;9.60;;;4.07;;
15693;SDS011;7947;48.834;9.132;2022-11-20T00:11:46;6.40;;;4.80;;
15693;SDS011;7947;48.834;9.132;2022-11-20T00:14:49;9.30;;;4.10;;
15693;SDS011;7947;48.834;9.132;2022-11-20T00:17:52;6.93;;;4.40;;
15693;SDS011;7947;48.834;9.132;2022-11-20T00:21:01;6.70;;;4.37;;
15693;SDS011;7947;48.834;9.132;2022-11-20T00:24:04;9.30;;;4.63;;
15693;SDS011;7947;48.834;9.132;2022-11-20T00:27:07;9.50;;;4.20;;
15693;SDS011;7947;48.834;9.132;2022-11-20T00:30:10;10.30;;;4.80;;
15693;SDS011;7947;48.834;9.132;2022-11-20T00:33:15;6.67;;;4.33;;
15693;SDS011;7947;48.834;9.132;2022-11-20T00:36:20;11.23;;;4.73;;
15693;SDS011;7947;48.834;9.132;2022-11-20T00:39:24;11.40;;;5.13;;
15693;SDS011;7947;48.834;9.132;2022-11-20T00:42:27;8.07;;;5.30;;
15693;SDS011;7947;48.834;9.132;2022-11-20T00:45:30;7.13;;;4.83;;
15693;SDS011;7947;48.834;9.132;2022-11-20T00:48:32;6.40;;;4.67;;
15693;SDS011;7947;48.834;9.132;2022-11-20T00:51:36;6.73;;;4.97;;
15693;SDS011;7947;48.834;9.132;2022-11-20T00:54:39;7.20;;;4.30;;
15693;SDS011;7947;48.834;9.132;2022-11-20T00:57:42;6.87;;;4.60;;
15693;SDS011;7947;48.834;9.132;2022-11-20T01:00:44;5.77;;;4.00;;
15693;SDS011;7947;48.834;9.132;2022-11-20T01:03:48;6.30;;;4.53;;
15693;SDS011;7947;48.834;9.132;2022-11-20T01:06:53;5.60;;;4.00;;
15693;SDS011;7947;48.834;9.132;2022-11-20T01:09:56;4.97;;;4.03;;
15693;SDS011;7947;48.834;9.132;2022-11-20T01:12:59;6.37;;;4.17;;
15693;SDS011;7947;48.834;9.132;2022-11-20T01:16:17;5.43;;;3.63;;
15693;SDS011;7947;48.834;9.132;2022-11-20T01:19:22;4.63;;;3.70;;
15693;SDS011;7947;48.834;9.132;2022-11-20T01:22:27;5.33;;;3.73;;
15693;SDS011;7947;48.834;9.132;2022-11-20T01:25:30;4.90;;;3.33;;
15693;SDS011;7947;48.834;9.132;2022-11-20T01:28:33;4.60;;;3.50;;
15693;SDS011;7947;48.834;9.132;2022-11-20T01:31:36;5.80;;;3.40;;
15693;SDS011;7947;48.834;9.132;2022-11-20T01:34:39;5.13;;;3.60;;
15693;SDS011;7947;48.834;9.132;2022-11-20T01:37:43;6.60;;;4.87;;
15693;SDS011;7947;48.834;9.132;2022-11-20T01:40:53;4.43;;;3.40;;
15693;SDS011;7947;48.834;9.132;2022-11-20T01:43:57;5.60;;;3.93;;
15693;SDS011;7947;48.834;9.132;2022-11-20T01:47:00;5.03;;;3.57;;
15693;SDS011;7947;48.834;9.132;2022-11-20T01:50:09;5.37;;;3.83;;
15693;SDS011;7947;48.834;9.132;2022-11-20T01:53:18;3.97;;;3.57;;
15693;SDS011;7947;48.834;9.132;2022-11-20T01:56:26;5.60;;;4.07;;
15693;SDS011;7947;48.834;9.132;2022-11-20T01:59:30;5.57;;;4.20;;
15693;SDS011;7947;48.834;9.132;2022-11-20T02:02:33;5.53;;;3.63;;
15693;SDS011;7947;48.834;9.132;2022-11-20T02:05:38;6.77;;;3.93;;
15693;SDS011;7947;48.834;9.132;2022-11-20T02:08:48;5.33;;;3.83;;
15693;SDS011;7947;48.834;9.132;2022-11-20T02:11:51;3.90;;;3.00;;
15693;SDS011;7947;48.834;9.132;2022-11-20T02:14:54;5.07;;;3.47;;
15693;SDS011;7947;48.834;9.132;2022-11-20T02:17:56;5.13;;;3.37;;
15693;SDS011;7947;48.834;9.132;2022-11-20T02:21:00;3.63;;;3.13;;
15693;SDS011;7947;48.834;9.132;2022-11-20T02:24:09;4.60;;;3.33;;
15693;SDS011;7947;48.834;9.132;2022-11-20T02:27:13;3.50;;;3.10;;
15693;SDS011;7947;48.834;9.132;2022-11-20T02:30:18;4.50;;;3.53;;
15693;SDS011;7947;48.834;9.132;2022-11-20T02:33:21;4.10;;;3.37;;
15693;SDS011;7947;48.834;9.132;2022-11-20T02:36:24;5.50;;;4.00;;
15693;SDS011;7947;48.834;9.132;2022-11-20T02:39:30;4.23;;;3.43;;
15693;SDS011;7947;48.834;9.132;2022-11-20T02:42:33;4.97;;;3.67;;
15693;SDS011;7947;48.834;9.132;2022-11-20T02:45:36;4.83;;;3.70;;
15693;SDS011;7947;48.834;9.132;2022-11-20T02:48:39;6.87;;;3.80;;
15693;SDS011;7947;48.834;9.132;2022-11-20T02:51:41;4.77;;;3.60;;
15693;SDS011;7947;48.834;9.132;2022-11-20T02:54:45;5.13;;;3.60;;
15693;SDS011;7947;48.834;9.132;2022-11-20T02:57:48;4.50;;;3.37;;
15693;SDS011;7947;48.834;9.132;2022-11-20T03:00:51;6.00;;;3.50;;
15693;SDS011;7947;48.834;9.132;2022-11-20T03:03:54;6.23;;;3.70;;
15693;SDS011;7947;48.834;9.132;2022-11-20T03:06:57;4.80;;;3.33;;
15693;SDS011;7947;48.834;9.132;2022-11-20T03:10:02;4.33;;;2.80;;
15693;SDS011;7947;48.834;9.132;2022-11-20T03:13:05;4.00;;;3.10;;
15693;SDS011;7947;48.834;9.132;2022-11-20T03:16:08;3.73;;;3.10;;
15693;SDS011;7947;48.834;9.132;2022-11-20T03:19:12;4.83;;;2.90;;
15693;SDS011;7947;48.834;9.132;2022-11-20T03:22:15;3.57;;;2.80;;
15693;SDS011;7947;48.834;9.132;2022-11-20T03:25:19;4.73;;;3.20;;
15693;SDS011;7947;48.834;9.132;2022-11-20T03:28:22;4.53;;;2.90;;
15693;SDS011;7947;48.834;9.132;2022-11-20T03:31:26;3.47;;;2.33;;
15693;SDS011;7947;48.834;9.132;2022-11-20T03:34:30;3.07;;;2.47;;
15693;SDS011;7947;48.834;9.132;2022-11-20T03:37:33;3.03;;;2.40;;
15693;SDS011;7947;48.834;9.132;2022-11-20T03:40:36;2.30;;;2.10;;
15693;SDS011;7947;48.834;9.132;2022-11-20T03:43:40;2.33;;;1.67;;
15693;SDS011;7947;48.834;9.132;2022-11-20T03:46:43;3.67;;;1.87;;
15693;SDS011;7947;48.834;9.132;2022-11-20T03:49:45;2.73;;;1.60;;
15693;SDS011;7947;48.834;9.132;2022-11-20T03:52:48;1.80;;;1.60;;
15693;SDS011;7947;48.834;9.132;2022-11-20T03:55:52;3.13;;;1.63;;
15693;SDS011;7947;48.834;9.132;2022-11-20T03:58:55;2.13;;;1.50;;
15693;SDS011;7947;48.834;9.132;2022-11-20T04:01:57;2.70;;;1.27;;
15693;SDS011;7947;48.834;9.132;2022-11-20T04:05:00;1.73;;;1.23;;
15693;SDS011;7947;48.834;9.132;2022-11-20T04:08:03;1.97;;;1.30;;
15693;SDS011;7947;48.834;9.132;2022-11-20T04:11:11;1.40;;;1.00;;
15693;SDS011;7947;48.834;9.132;2022-11-20T04:14:16;2.23;;;1.50;;
15693;SDS011;7947;48.834;9.132;2022-11-20T04:17:18;1.90;;;1.50;;
15693;SDS011;7947;48.834;9.132;2022-11-20T04:20:21;2.73;;;1.53;;
15693;SDS011;7947;48.834;9.132;2022-11-20T04:23:24;1.90;;;1.70;;
15693;SDS011;7947;48.834;9.132;2022-11-20T04:26:30;1.67;;;1.57;;
15693;SDS011;7947;48.834;9.132;2022-11-20T04:29:33;2.30;;;1.57;;
15693;SDS011;7947;48.834;9.132;2022-11-20T04:32:36;2.13;;;1.77;;
15693;SDS011;7947;48.834;9.132;2022-11-20T04:35:39;2.80;;;1.93;;
15693;SDS011;7947;48.834;9.132;2022-11-20T04:38:42;1.77;;;1.27;;
15693;SDS011;7947;48.834;9.132;2022-11-20T04:41:46;2.80;;;1.70;;
15693;SDS011;7947;48.834;9.132;2022-11-20T04:44:48;3.33;;;1.60;;
15693;SDS011;7947;48.834;9.132;2022-11-20T04:47:51;3.13;;;1.70;;
15693;SDS011;7947;48.834;9.132;2022-11-20T04:50:55;3.77;;;1.87;;
15693;SDS011;7947;48.834;9.132;2022-11-20T04:53:57;1.83;;;1.47;;
15693;SDS011;7947;48.834;9.132;2022-11-20T04:57:02;2.37;;;1.63;;
15693;SDS011;7947;48.834;9.132;2022-11-20T05:00:05;1.77;;;1.60;;
15693;SDS011;7947;48.834;9.132;2022-11-20T05:03:08;2.47;;;1.70;;
15693;SDS011;7947;48.834;9.132;2022-11-20T05:06:12;2.07;;;1.33;;
15693;SDS011;7947;48.834;9.132;2022-11-20T05:09:16;3.60;;;1.73;;
15693;SDS011;7947;48.834;9.132;2022-11-20T05:12:20;2.00;;;1.40;;
15693;SDS011;7947;48.834;9.132;2022-11-20T05:15:23;1.57;;;1.20;;
15693;SDS011;7947;48.834;9.132;2022-11-20T05:18:26;1.70;;;1.60;;
15693;SDS011;7947;48.834;9.132;2022-11-20T05:21:30;2.10;;;1.30;;
15693;SDS011;7947;48.834;9.132;2022-11-20T05:24:33;1.90;;;1.43;;
15693;SDS011;7947;48.834;9.132;2022-11-20T05:27:37;1.47;;;1.23;;
15693;SDS011;7947;48.834;9.132;2022-11-20T05:30:40;2.30;;;1.60;;
15693;SDS011;7947;48.834;9.132;2022-11-20T05:33:43;1.83;;;1.40;;
15693;SDS011;7947;48.834;9.132;2022-11-20T05:36:46;1.83;;;1.40;;
15693;SDS011;7947;48.834;9.132;2022-11-20T05:39:49;2.00;;;1.40;;
15693;SDS011;7947;48.834;9.132;2022-11-20T05:42:53;1.77;;;1.43;;
15693;SDS011;7947;48.834;9.132;2022-11-20T05:45:55;1.77;;;1.47;;
15693;SDS011;7947;48.834;9.132;2022-11-20T05:48:58;2.67;;;1.40;;
15693;SDS011;7947;48.834;9.132;2022-11-20T05:52:01;1.53;;;1.17;;
15693;SDS011;7947;48.834;9.132;2022-11-20T05:55:04;1.53;;;1.33;;
15693;SDS011;7947;48.834;9.132;2022-11-20T05:58:08;1.63;;;1.20;;
15693;SDS011;7947;48.834;9.132;2022-11-20T06:01:12;5.50;;;3.73;;
15693;SDS011;7947;48.834;9.132;2022-11-20T06:04:16;2.33;;;1.60;;
15693;SDS011;7947;48.834;9.132;2022-11-20T06:07:19;2.20;;;1.67;;
15693;SDS011;7947;48.834;9.132;2022-11-20T06:10:21;1.93;;;1.40;;
15693;SDS011;7947;48.834;9.132;2022-11-20T06:13:28;2.23;;;1.60;;
15693;SDS011;7947;48.834;9.132;2022-11-20T06:16:31;2.10;;;1.43;;
15693;SDS011;7947;48.834;9.132;2022-11-20T06:19:34;2.00;;;1.60;;
15693;SDS011;7947;48.834;9.132;2022-11-20T06:22:38;2.20;;;1.33;;
15693;SDS011;7947;48.834;9.132;2022-11-20T06:25:41;2.03;;;1.60;;
15693;SDS011;7947;48.834;9.132;2022-11-20T06:28:46;1.63;;;1.53;;
15693;SDS011;7947;48.834;9.132;2022-11-20T06:31:50;1.90;;;1.50;;
15693;SDS011;7947;48.834;9.132;2022-11-20T06:34:52;2.30;;;1.47;;
15693;SDS011;7947;48.834;9.132;2022-11-20T06:37:55;1.23;;;1.10;;
15693;SDS011;7947;48.834;9.132;2022-11-20T06:40:58;5.53;;;1.37;;
15693;SDS011;7947;48.834;9.132;2022-11-20T06:44:03;4.53;;;2.83;;
15693;SDS011;7947;48.834;9.132;2022-11-20T06:47:06;2.20;;;1.30;;
15693;SDS011;7947;48.834;9.132;2022-11-20T06:50:09;1.53;;;1.30;;
15693;SDS011;7947;48.834;9.132;2022-11-20T06:53:11;1.33;;;1.10;;
15693;SDS011;7947;48.834;9.132;2022-11-20T06:56:14;1.17;;;1.07;;
15693;SDS011;7947;48.834;9.132;2022-11-20T06:59:18;1.13;;;1.03;;
15693;SDS011;7947;48.834;9.132;2022-11-20T07:02:23;1.70;;;1.03;;
15693;SDS011;7947;48.834;9.132;2022-11-20T07:05:25;2.83;;;1.17;;
15693;SDS011;7947;48.834;9.132;2022-11-20T07:08:28;1.73;;;1.10;;
15693;SDS011;7947;48.834;9.132;2022-11-20T07:11:31;1.20;;;1.00;;
15693;SDS011;7947;48.834;9.132;2022-11-20T07:14:35;3.13;;;1.20;;
15693;SDS011;7947;48.834;9.132;2022-11-20T07:17:38;2.57;;;1.00;;
15693;SDS011;7947;48.834;9.132;2022-11-20T07:20:40;1.23;;;0.93;;
15693;SDS011;7947;48.834;9.132;2022-11-20T07:23:43;1.13;;;1.00;;
15693;SDS011;7947;48.834;9.132;2022-11-20T07:26:46;1.20;;;1.10;;
15693;SDS011;7947;48.834;9.132;2022-11-20T07:29:51;2.00;;;0.90;;
15693;SDS011;7947;48.834;9.132;2022-11-20T07:32:54;1.10;;;1.00;;
15693;SDS011;7947;48.834;9.132;2022-11-20T07:35:58;2.40;;;1.63;;
15693;SDS011;7947;48.834;9.132;2022-11-20T07:39:28;2.27;;;1.20;;
15693;SDS011;7947;48.834;9.132;2022-11-20T07:42:31;1.30;;;1.20;;
15693;SDS011;7947;48.834;9.132;2022-11-20T07:45:35;1.83;;;1.37;;
15693;SDS011;7947;48.834;9.132;2022-11-20T07:48:38;1.63;;;1.20;;
15693;SDS011;7947;48.834;9.132;2022-11-20T07:51:41;1.40;;;0.93;;
15693;SDS011;7947;48.834;9.132;2022-11-20T07:54:43;2.00;;;0.97;;
15693;SDS011;7947;48.834;9.132;2022-11-20T07:57:46;1.10;;;1.00;;
15693;SDS011;7947;48.834;9.132;2022-11-20T08:00:57;1.10;;;1.00;;
15693;SDS011;7947;48.834;9.132;2022-11-20T08:04:00;1.47;;;1.20;;
15693;SDS011;7947;48.834;9.132;2022-11-20T08:07:03;1.07;;;0.97;;
15693;SDS011;7947;48.834;9.132;2022-11-20T08:10:07;1.13;;;1.03;;
15693;SDS011;7947;48.834;9.132;2022-11-20T08:13:11;1.30;;;1.17;;
15693;SDS011;7947;48.834;9.132;2022-11-20T08:16:33;1.97;;;1.20;;
15693;SDS011;7947;48.834;9.132;2022-11-20T08:19:35;2.07;;;1.30;;
15693;SDS011;7947;48.834;9.132;2022-11-20T08:22:43;1.73;;;1.07;;
15693;SDS011;7947;48.834;9.132;2022-11-20T08:25:48;2.37;;;1.00;;
15693;SDS011;7947;48.834;9.132;2022-11-20T08:28:53;1.43;;;1.07;;
15693;SDS011;7947;48.834;9.132;2022-11-20T08:31:58;1.20;;;0.87;;
15693;SDS011;7947;48.834;9.132;2022-11-20T08:35:00;1.40;;;0.83;;
15693;SDS011;7947;48.834;9.132;2022-11-20T08:38:03;3.43;;;3.07;;
15693;SDS011;7947;48.834;9.132;2022-11-20T08:41:07;1.60;;;1.40;;
15693;SDS011;7947;48.834;9.132;2022-11-20T08:44:28;1.50;;;1.20;;
15693;SDS011;7947;48.834;9.132;2022-11-20T08:47:32;1.40;;;1.10;;
15693;SDS011;7947;48.834;9.132;2022-11-20T08:50:34;0.80;;;0.70;;
15693;SDS011;7947;48.834;9.132;2022-11-20T08:53:37;1.73;;;0.90;;
15693;SDS011;7947;48.834;9.132;2022-11-20T08:56:40;0.73;;;0.63;;
15693;SDS011;7947;48.834;9.132;2022-11-20T08:59:43;0.37;;;0.33;;
15693;SDS011;7947;48.834;9.132;2022-11-20T09:03:07;1.27;;;0.60;;
15693;SDS011;7947;48.834;9.132;2022-11-20T09:06:10;0.70;;;0.60;;
15693;SDS011;7947;48.834;9.132;2022-11-20T09:09:12;0.73;;;0.50;;
15693;SDS011;7947;48.834;9.132;2022-11-20T09:12:15;1.23;;;0.47;;
15693;SDS011;7947;48.834;9.132;2022-11-20T09:15:18;0.50;;;0.43;;
15693;SDS011;7947;48.834;9.132;2022-11-20T09:18:23;0.93;;;0.40;;
15693;SDS011;7947;48.834;9.132;2022-11-20T09:21:26;0.57;;;0.50;;
15693;SDS011;7947;48.834;9.132;2022-11-20T09:24:29;0.73;;;0.50;;
15693;SDS011;7947;48.834;9.132;2022-11-20T09:27:32;0.50;;;0.50;;
15693;SDS011;7947;48.834;9.132;2022-11-20T09:30:34;0.63;;;0.63;;
15693;SDS011;7947;48.834;9.132;2022-11-20T09:33:39;1.00;;;0.70;;
15693;SDS011;7947;48.834;9.132;2022-11-20T09:36:41;0.97;;;0.50;;
15693;SDS011;7947;48.834;9.132;2022-11-20T09:39:44;0.70;;;0.37;;
15693;SDS011;7947;48.834;9.132;2022-11-20T09:42:47;0.40;;;0.40;;
15693;SDS011;7947;48.834;9.132;2022-11-20T09:46:02;0.47;;;0.43;;
15693;SDS011;7947;48.834;9.132;2022-11-20T09:49:17;0.70;;;0.50;;
15693;SDS011;7947;48.834;9.132;2022-11-20T09:52:36;1.10;;;0.60;;
15693;SDS011;7947;48.834;9.132;2022-11-20T09:55:44;0.57;;;0.50;;
15693;SDS011;7947;48.834;9.132;2022-11-20T09:58:48;0.40;;;0.40;;
15693;SDS011;7947;48.834;9.132;2022-11-20T10:01:54;0.97;;;0.60;;
15693;SDS011;7947;48.834;9.132;2022-11-20T10:05:00;1.23;;;0.73;;
15693;SDS011;7947;48.834;9.132;2022-11-20T10:08:10;0.67;;;0.60;;
15693;SDS011;7947;48.834;9.132;2022-11-20T10:11:21;0.83;;;0.50;;
15693;SDS011;7947;48.834;9.132;2022-11-20T10:14:38;0.40;;;0.40;;
15693;SDS011;7947;48.834;9.132;2022-11-20T10:17:54;0.37;;;0.33;;
15693;SDS011;7947;48.834;9.132;2022-11-20T10:21:14;0.60;;;0.37;;
15693;SDS011;7947;48.834;9.132;2022-11-20T10:24:47;0.43;;;0.40;;
15693;SDS011;7947;48.834;9.132;2022-11-20T10:28:10;1.17;;;0.70;;
15693;SDS011;7947;48.834;9.132;2022-11-20T10:31:25;2.93;;;1.30;;
15693;SDS011;7947;48.834;9.132;2022-11-20T10:34:34;1.57;;;0.93;;
15693;SDS011;7947;48.834;9.132;2022-11-20T10:37:49;1.13;;;0.77;;
15693;SDS011;7947;48.834;9.132;2022-11-20T10:40:57;1.73;;;1.03;;
15693;SDS011;7947;48.834;9.132;2022-11-20T10:44:17;0.80;;;0.80;;
15693;SDS011;7947;48.834;9.132;2022-11-20T10:47:37;0.87;;;0.60;;
15693;SDS011;7947;48.834;9.132;2022-11-20T10:50:40;0.57;;;0.57;;
15693;SDS011;7947;48.834;9.132;2022-11-20T10:53:56;1.07;;;0.60;;
15693;SDS011;7947;48.834;9.132;2022-11-20T10:57:05;0.80;;;0.80;;
15693;SDS011;7947;48.834;9.132;2022-11-20T11:00:16;1.27;;;0.80;;
15693;SDS011;7947;48.834;9.132;2022-11-20T11:03:20;0.97;;;0.80;;
15693;SDS011;7947;48.834;9.132;2022-11-20T11:06:29;2.43;;;0.70;;
15693;SDS011;7947;48.834;9.132;2022-11-20T11:09:41;0.90;;;0.70;;
15693;SDS011;7947;48.834;9.132;2022-11-20T11:12:46;1.33;;;0.67;;
15693;SDS011;7947;48.834;9.132;2022-11-20T11:15:50;1.10;;;0.87;;
15693;SDS011;7947;48.834;9.132;2022-11-20T11:19:02;1.00;;;0.77;;
15693;SDS011;7947;48.834;9.132;2022-11-20T11:22:06;1.10;;;0.63;;
15693;SDS011;7947;48.834;9.132;2022-11-20T11:25:23;1.53;;;1.30;;
15693;SDS011;7947;48.834;9.132;2022-11-20T11:28:31;2.03;;;1.30;;
15693;SDS011;7947;48.834;9.132;2022-11-20T11:31:34;0.97;;;0.87;;
15693;SDS011;7947;48.834;9.132;2022-11-20T11:34:37;2.20;;;1.00;;
15693;SDS011;7947;48.834;9.132;2022-11-20T11:37:40;1.10;;;1.00;;
15693;SDS011;7947;48.834;9.132;2022-11-20T11:40:44;1.40;;;1.13;;
15693;SDS011;7947;48.834;9.132;2022-11-20T11:43:51;3.07;;;1.40;;
15693;SDS011;7947;48.834;9.132;2022-11-20T11:47:18;2.50;;;1.10;;
15693;SDS011;7947;48.834;9.132;2022-11-20T11:50:26;1.20;;;0.83;;
15693;SDS011;7947;48.834;9.132;2022-11-20T11:53:29;1.83;;;0.80;;
15693;SDS011;7947;48.834;9.132;2022-11-20T11:56:34;0.70;;;0.70;;
15693;SDS011;7947;48.834;9.132;2022-11-20T11:59:40;2.77;;;1.07;;
15693;SDS011;7947;48.834;9.132;2022-11-20T12:02:56;2.17;;;0.83;;
15693;SDS011;7947;48.834;9.132;2022-11-20T12:06:08;2.93;;;0.77;;
15693;SDS011;7947;48.834;9.132;2022-11-20T12:09:14;2.83;;;0.87;;
15693;SDS011;7947;48.834;9.132;2022-11-20T12:12:24;2.20;;;1.00;;
15693;SDS011;7947;48.834;9.132;2022-11-20T12:15:30;1.37;;;0.70;;
15693;SDS011;7947;48.834;9.132;2022-11-20T12:18:35;1.47;;;0.80;;
15693;SDS011;7947;48.834;9.132;2022-11-20T12:21:41;1.00;;;0.60;;
15693;SDS011;7947;48.834;9.132;2022-11-20T12:25:03;1.70;;;0.85;;
15693;SDS011;7947;48.834;9.132;2022-11-20T12:28:21;1.33;;;0.50;;
15693;SDS011;7947;48.834;9.132;2022-11-20T12:31:42;2.25;;;0.60;;
15693;SDS011;7947;48.834;9.132;2022-11-20T12:34:57;0.95;;;0.47;;
15693;SDS011;7947;48.834;9.132;2022-11-20T12:38:31;0.90;;;0.50;;
15693;SDS011;7947;48.834;9.132;2022-11-20T12:41:51;1.20;;;0.40;;
15693;SDS011;7947;48.834;9.132;2022-11-20T12:45:31;1.65;;;0.85;;
15693;SDS011;7947;48.834;9.132;2022-11-20T12:49:07;1.17;;;0.70;;
15693;SDS011;7947;48.834;9.132;2022-11-20T12:52:24;4.18;;;0.60;;
15693;SDS011;7947;48.834;9.132;2022-11-20T12:55:41;1.05;;;0.65;;
15693;SDS011;7947;48.834;9.132;2022-11-20T12:58:54;0.98;;;0.65;;
15693;SDS011;7947;48.834;9.132;2022-11-20T13:02:14;1.33;;;1.00;;
15693;SDS011;7947;48.834;9.132;2022-11-20T13:05:27;1.43;;;0.90;;
15693;SDS011;7947;48.834;9.132;2022-11-20T13:08:37;1.57;;;0.80;;
15693;SDS011;7947;48.834;9.132;2022-11-20T13:11:43;0.93;;;0.70;;
15693;SDS011;7947;48.834;9.132;2022-11-20T13:14:51;0.73;;;0.40;;
15693;SDS011;7947;48.834;9.132;2022-11-20T13:18:00;1.07;;;0.50;;
15693;SDS011;7947;48.834;9.132;2022-11-20T13:21:13;2.23;;;0.60;;
15693;SDS011;7947;48.834;9.132;2022-11-20T13:24:21;0.50;;;0.50;;
15693;SDS011;7947;48.834;9.132;2022-11-20T13:27:27;1.10;;;0.60;;
15693;SDS011;7947;48.834;9.132;2022-11-20T13:30:32;1.37;;;0.60;;
15693;SDS011;7947;48.834;9.132;2022-11-20T13:33:37;1.27;;;0.77;;
15693;SDS011;7947;48.834;9.132;2022-11-20T13:36:49;1.27;;;0.60;;
15693;SDS011;7947;48.834;9.132;2022-11-20T13:39:53;0.40;;;0.37;;
15693;SDS011;7947;48.834;9.132;2022-11-20T13:43:10;0.30;;;0.30;;
15693;SDS011;7947;48.834;9.132;2022-11-20T13:46:20;2.43;;;0.50;;
15693;SDS011;7947;48.834;9.132;2022-11-20T13:49:29;0.90;;;0.50;;
15693;SDS011;7947;48.834;9.132;2022-11-20T13:52:38;0.60;;;0.27;;
15693;SDS011;7947;48.834;9.132;2022-11-20T13:55:49;1.80;;;0.33;;
15693;SDS011;7947;48.834;9.132;2022-11-20T13:58:59;0.53;;;0.40;;
15693;SDS011;7947;48.834;9.132;2022-11-20T14:02:17;1.60;;;0.60;;
15693;SDS011;7947;48.834;9.132;2022-11-20T14:05:23;0.63;;;0.40;;
15693;SDS011;7947;48.834;9.132;2022-11-20T14:08:27;0.70;;;0.40;;
15693;SDS011;7947;48.834;9.132;2022-11-20T14:11:35;1.07;;;0.50;;
15693;SDS011;7947;48.834;9.132;2022-11-20T14:14:46;1.30;;;0.60;;
15693;SDS011;7947;48.834;9.132;2022-11-20T14:17:52;2.83;;;1.50;;
15693;SDS011;7947;48.834;9.132;2022-11-20T14:20:56;0.70;;;0.57;;
15693;SDS011;7947;48.834;9.132;2022-11-20T14:24:03;0.63;;;0.53;;
15693;SDS011;7947;48.834;9.132;2022-11-20T14:27:10;0.67;;;0.37;;
15693;SDS011;7947;48.834;9.132;2022-11-20T14:30:16;1.50;;;0.60;;
15693;SDS011;7947;48.834;9.132;2022-11-20T14:33:20;1.40;;;0.40;;
15693;SDS011;7947;48.834;9.132;2022-11-20T14:36:27;2.53;;;0.47;;
15693;SDS011;7947;48.834;9.132;2022-11-20T14:39:30;1.73;;;0.83;;
15693;SDS011;7947;48.834;9.132;2022-11-20T14:42:36;2.50;;;0.90;;
15693;SDS011;7947;48.834;9.132;2022-11-20T14:45:38;1.53;;;0.50;;
15693;SDS011;7947;48.834;9.132;2022-11-20T14:48:41;1.47;;;0.90;;
15693;SDS011;7947;48.834;9.132;2022-11-20T14:51:57;1.53;;;0.70;;
15693;SDS011;7947;48.834;9.132;2022-11-20T14:55:01;1.83;;;0.80;;
15693;SDS011;7947;48.834;9.132;2022-11-20T14:58:05;0.77;;;0.50;;
15693;SDS011;7947;48.834;9.132;2022-11-20T15:01:12;4.33;;;0.90;;
15693;SDS011;7947;48.834;9.132;2022-11-20T15:04:15;2.40;;;0.80;;
15693;SDS011;7947;48.834;9.132;2022-11-20T15:07:26;1.07;;;0.87;;
15693;SDS011;7947;48.834;9.132;2022-11-20T15:10:30;1.50;;;0.90;;
15693;SDS011;7947;48.834;9.132;2022-11-20T15:13:34;2.50;;;1.33;;
15693;SDS011;7947;48.834;9.132;2022-11-20T15:16:39;2.33;;;1.40;;
15693;SDS011;7947;48.834;9.132;2022-11-20T15:19:42;1.60;;;1.20;;
15693;SDS011;7947;48.834;9.132;2022-11-20T15:22:47;2.80;;;1.20;;
15693;SDS011;7947;48.834;9.132;2022-11-20T15:25:49;1.10;;;1.00;;
15693;SDS011;7947;48.834;9.132;2022-11-20T15:28:52;1.97;;;0.97;;
15693;SDS011;7947;48.834;9.132;2022-11-20T15:31:56;1.77;;;1.00;;
15693;SDS011;7947;48.834;9.132;2022-11-20T15:34:58;5.60;;;1.60;;
15693;SDS011;7947;48.834;9.132;2022-11-20T15:38:03;2.40;;;1.50;;
15693;SDS011;7947;48.834;9.132;2022-11-20T15:41:06;2.60;;;1.60;;
15693;SDS011;7947;48.834;9.132;2022-11-20T15:44:09;3.50;;;1.50;;
15693;SDS011;7947;48.834;9.132;2022-11-20T15:47:12;2.30;;;1.20;;
15693;SDS011;7947;48.834;9.132;2022-11-20T15:50:15;1.47;;;1.00;;
15693;SDS011;7947;48.834;9.132;2022-11-20T15:53:21;1.53;;;0.90;;
15693;SDS011;7947;48.834;9.132;2022-11-20T15:56:23;3.33;;;1.30;;
15693;SDS011;7947;48.834;9.132;2022-11-20T15:59:26;2.60;;;1.20;;
15693;SDS011;7947;48.834;9.132;2022-11-20T16:02:29;3.87;;;1.13;;
15693;SDS011;7947;48.834;9.132;2022-11-20T16:05:32;4.43;;;1.07;;
15693;SDS011;7947;48.834;9.132;2022-11-20T16:08:36;2.07;;;1.23;;
15693;SDS011;7947;48.834;9.132;2022-11-20T16:11:39;1.90;;;1.47;;
15693;SDS011;7947;48.834;9.132;2022-11-20T16:14:41;5.17;;;2.97;;
15693;SDS011;7947;48.834;9.132;2022-11-20T16:18:02;3.73;;;1.77;;
15693;SDS011;7947;48.834;9.132;2022-11-20T16:21:10;4.40;;;1.70;;
15693;SDS011;7947;48.834;9.132;2022-11-20T16:24:15;6.40;;;4.63;;
15693;SDS011;7947;48.834;9.132;2022-11-20T16:27:18;4.07;;;3.10;;
15693;SDS011;7947;48.834;9.132;2022-11-20T16:30:20;2.40;;;2.00;;
15693;SDS011;7947;48.834;9.132;2022-11-20T16:33:23;2.83;;;1.63;;
15693;SDS011;7947;48.834;9.132;2022-11-20T16:36:26;2.97;;;1.63;;
15693;SDS011;7947;48.834;9.132;2022-11-20T16:39:32;1.67;;;1.10;;
15693;SDS011;7947;48.834;9.132;2022-11-20T16:42:35;1.93;;;1.27;;
15693;SDS011;7947;48.834;9.132;2022-11-20T16:45:42;2.03;;;1.30;;
15693;SDS011;7947;48.834;9.132;2022-11-20T16:48:48;2.07;;;1.47;;
15693;SDS011;7947;48.834;9.132;2022-11-20T16:51:54;1.40;;;1.10;;
15693;SDS011;7947;48.834;9.132;2022-11-20T16:54:58;1.77;;;1.50;;
15693;SDS011;7947;48.834;9.132;2022-11-20T16:58:01;7.33;;;2.73;;
15693;SDS011;7947;48.834;9.132;2022-11-20T17:01:04;5.87;;;2.90;;
15693;SDS011;7947;48.834;9.132;2022-11-20T17:04:10;6.40;;;2.90;;
15693;SDS011;7947;48.834;9.132;2022-11-20T17:07:13;3.90;;;2.67;;
15693;SDS011;7947;48.834;9.132;2022-11-20T17:10:18;3.60;;;2.13;;
15693;SDS011;7947;48.834;9.132;2022-11-20T17:13:20;6.83;;;2.43;;
15693;SDS011;7947;48.834;9.132;2022-11-20T17:16:23;6.87;;;4.13;;
15693;SDS011;7947;48.834;9.132;2022-11-20T17:19:26;6.27;;;2.87;;
15693;SDS011;7947;48.834;9.132;2022-11-20T17:22:28;6.63;;;2.70;;
15693;SDS011;7947;48.834;9.132;2022-11-20T17:25:34;9.40;;;4.03;;
15693;SDS011;7947;48.834;9.132;2022-11-20T17:28:37;8.80;;;3.73;;
15693;SDS011;7947;48.834;9.132;2022-11-20T17:31:40;9.27;;;3.60;;
15693;SDS011;7947;48.834;9.132;2022-11-20T17:34:42;12.93;;;4.00;;
15693;SDS011;7947;48.834;9.132;2022-11-20T17:37:45;8.87;;;4.17;;
15693;SDS011;7947;48.834;9.132;2022-11-20T17:40:49;8.57;;;3.00;;
15693;SDS011;7947;48.834;9.132;2022-11-20T17:43:52;4.67;;;2.40;;
15693;SDS011;7947;48.834;9.132;2022-11-20T17:46:56;7.80;;;3.40;;
15693;SDS011;7947;48.834;9.132;2022-11-20T17:49:59;8.10;;;3.17;;
15693;SDS011;7947;48.834;9.132;2022-11-20T17:53:01;7.00;;;2.73;;
15693;SDS011;7947;48.834;9.132;2022-11-20T17:56:05;5.77;;;2.80;;
15693;SDS011;7947;48.834;9.132;2022-11-20T17:59:26;2.53;;;1.53;;
15693;SDS011;7947;48.834;9.132;2022-11-20T18:02:29;5.83;;;3.00;;
15693;SDS011;7947;48.834;9.132;2022-11-20T18:05:32;5.87;;;2.53;;
15693;SDS011;7947;48.834;9.132;2022-11-20T18:08:34;7.70;;;3.30;;
15693;SDS011;7947;48.834;9.132;2022-11-20T18:11:39;4.47;;;2.27;;
15693;SDS011;7947;48.834;9.132;2022-11-20T18:14:43;4.53;;;1.93;;
15693;SDS011;7947;48.834;9.132;2022-11-20T18:17:45;3.23;;;1.77;;
15693;SDS011;7947;48.834;9.132;2022-11-20T18:20:51;4.17;;;1.97;;
15693;SDS011;7947;48.834;9.132;2022-11-20T18:23:54;1.70;;;1.50;;
15693;SDS011;7947;48.834;9.132;2022-11-20T18:26:59;3.43;;;1.70;;
15693;SDS011;7947;48.834;9.132;2022-11-20T18:30:02;3.67;;;1.70;;
15693;SDS011;7947;48.834;9.132;2022-11-20T18:33:05;2.83;;;1.60;;
15693;SDS011;7947;48.834;9.132;2022-11-20T18:36:08;2.70;;;2.23;;
15693;SDS011;7947;48.834;9.132;2022-11-20T18:39:12;3.17;;;1.50;;
15693;SDS011;7947;48.834;9.132;2022-11-20T18:42:17;3.97;;;1.80;;
15693;SDS011;7947;48.834;9.132;2022-11-20T18:45:37;5.30;;;2.70;;
15693;SDS011;7947;48.834;9.132;2022-11-20T18:48:40;5.67;;;2.43;;
15693;SDS011;7947;48.834;9.132;2022-11-20T18:51:42;4.07;;;1.67;;
15693;SDS011;7947;48.834;9.132;2022-11-20T18:54:48;1.90;;;1.00;;
15693;SDS011;7947;48.834;9.132;2022-11-20T18:57:53;2.90;;;1.27;;